createdAt,value
2024-02-05T00:00:53.305Z,79.31
2024-02-05T00:03:41.964Z,79.45
2024-02-05T00:06:12.229Z,79.35
2024-02-05T00:08:41.034Z,79.34
2024-02-05T00:11:10.336Z,79.44
2024-02-05T00:13:38.897Z,79.43
2024-02-05T00:16:07.624Z,79.43
2024-02-05T00:18:36.902Z,79.45
2024-02-05T00:21:05.587Z,79.61
2024-02-05T00:23:34.334Z,79.50
2024-02-05T00:26:04.687Z,79.46
2024-02-05T00:28:33.268Z,79.54
2024-02-05T00:31:02.051Z,79.55
2024-02-05T00:33:30.850Z,79.51
2024-02-05T00:35:59.414Z,79.58
2024-02-05T00:38:28.031Z,79.70
2024-02-05T00:40:56.553Z,79.87
2024-02-05T00:43:25.210Z,80.01
2024-02-05T00:45:53.865Z,79.96
2024-02-05T00:48:23.273Z,79.79
2024-02-05T00:50:51.821Z,80.08
2024-02-05T00:53:20.310Z,80.36
2024-02-05T00:55:48.899Z,80.34
2024-02-05T00:58:18.014Z,80.44
2024-02-05T01:00:47.055Z,80.43
2024-02-05T01:03:15.668Z,80.97
2024-02-05T01:05:44.711Z,81.24
2024-02-05T01:08:14.039Z,81.21
2024-02-05T01:10:44.146Z,81.28
2024-02-05T01:13:12.723Z,81.30
2024-02-05T01:15:41.336Z,81.37
2024-02-05T01:18:09.998Z,81.43
2024-02-05T01:20:38.511Z,81.70
2024-02-05T01:23:07.000Z,81.71
2024-02-05T01:25:35.552Z,81.71
2024-02-05T01:28:04.874Z,81.78
2024-02-05T01:30:34.087Z,81.85
2024-02-05T01:33:02.822Z,81.89
2024-02-05T01:35:31.514Z,82.08
2024-02-05T01:38:00.079Z,82.02
2024-02-05T01:40:28.911Z,82.11
2024-02-05T01:42:57.523Z,82.11
2024-02-05T01:45:26.017Z,82.27
2024-02-05T01:47:54.922Z,82.15
2024-02-05T01:50:23.615Z,82.32
2024-02-05T01:52:52.400Z,82.47
2024-02-05T01:55:25.041Z,82.46
2024-02-05T01:57:55.693Z,82.48
2024-02-05T02:00:27.103Z,82.57
2024-02-05T02:02:56.513Z,82.68
2024-02-05T02:05:25.422Z,82.80
2024-02-05T02:07:54.119Z,82.82
2024-02-05T02:10:22.766Z,82.88
2024-02-05T02:12:51.667Z,82.86
2024-02-05T02:15:20.273Z,83.11
2024-02-05T02:17:51.717Z,83.23
2024-02-05T02:20:25.793Z,83.07
2024-02-05T02:23:07.221Z,83.33
2024-02-05T02:25:40.214Z,83.45
2024-02-05T02:28:08.884Z,83.42
2024-02-05T02:30:40.154Z,83.48
2024-02-05T02:33:48.369Z,83.82
2024-02-05T02:36:26.163Z,83.93
2024-02-05T02:39:23.888Z,83.75
2024-02-05T02:41:57.604Z,83.91
2024-02-05T02:44:28.756Z,84.04
2024-02-05T02:46:59.385Z,84.09
2024-02-05T02:49:28.163Z,84.04
2024-02-05T02:51:56.773Z,84.10
2024-02-05T02:54:26.387Z,84.23
2024-02-05T02:56:55.782Z,84.18
2024-02-05T02:59:24.310Z,84.29
2024-02-05T03:01:52.969Z,84.51
2024-02-05T03:04:21.717Z,84.45
2024-02-05T03:06:50.965Z,84.39
2024-02-05T03:09:19.463Z,84.47
2024-02-05T03:11:47.986Z,84.61
2024-02-05T03:14:16.549Z,84.52
2024-02-05T03:16:45.103Z,84.44
2024-02-05T03:19:13.782Z,84.71
2024-02-05T03:21:42.747Z,84.57
2024-02-05T03:24:11.516Z,84.56
2024-02-05T03:26:40.845Z,84.79
2024-02-05T03:29:10.228Z,84.73
2024-02-05T03:31:43.343Z,84.76
2024-02-05T03:34:12.143Z,84.85
2024-02-05T03:36:40.805Z,84.81
2024-02-05T03:39:11.253Z,84.79
2024-02-05T03:41:40.741Z,84.89
2024-02-05T03:44:09.447Z,84.95
2024-02-05T03:46:38.191Z,85.00
2024-02-05T03:49:07.748Z,85.00
2024-02-05T03:51:36.339Z,85.13
2024-02-05T03:54:09.530Z,85.36
2024-02-05T03:56:41.505Z,85.21
2024-02-05T03:59:11.852Z,85.19
2024-02-05T04:01:41.601Z,85.15
2024-02-05T04:04:12.470Z,85.29
2024-02-05T04:06:41.764Z,85.27
2024-02-05T04:09:10.517Z,85.09
2024-02-05T04:11:43.186Z,85.27
2024-02-05T04:14:11.664Z,85.34
2024-02-05T04:16:40.340Z,85.37
2024-02-05T04:19:08.998Z,85.40
2024-02-05T04:21:37.828Z,85.42
2024-02-05T04:24:06.993Z,85.51
2024-02-05T04:26:35.678Z,85.41
2024-02-05T04:29:11.605Z,85.50
2024-02-05T04:31:40.975Z,85.49
2024-02-05T04:34:09.498Z,85.32
2024-02-05T04:36:38.101Z,85.38
2024-02-05T04:39:13.067Z,85.43
2024-02-05T04:41:42.842Z,85.45
2024-02-05T04:44:11.911Z,85.58
2024-02-05T04:46:41.101Z,85.74
2024-02-05T04:49:09.692Z,85.77
2024-02-05T04:51:39.048Z,85.65
2024-02-05T04:54:08.123Z,85.62
2024-02-05T04:56:36.818Z,85.71
2024-02-05T04:59:05.760Z,85.75
2024-02-05T05:01:34.468Z,85.81
2024-02-05T05:04:04.156Z,85.83
2024-02-05T05:06:32.834Z,85.77
2024-02-05T05:09:01.467Z,85.69
2024-02-05T05:11:30.633Z,85.79
2024-02-05T05:13:59.182Z,85.86
2024-02-05T05:16:32.545Z,85.90
2024-02-05T05:19:02.930Z,85.94
2024-02-05T05:21:31.941Z,86.01
2024-02-05T05:24:00.491Z,85.98
2024-02-05T05:26:29.440Z,85.87
2024-02-05T05:28:57.990Z,86.01
2024-02-05T05:31:26.734Z,86.26
2024-02-05T05:33:56.372Z,86.14
2024-02-05T05:36:25.110Z,86.19
2024-02-05T05:38:53.696Z,86.23
2024-02-05T05:41:22.226Z,86.16
2024-02-05T05:43:53.732Z,86.18
2024-02-05T05:46:22.696Z,86.19
2024-02-05T05:48:51.459Z,86.07
2024-02-05T05:51:20.076Z,86.05
2024-02-05T05:53:48.758Z,86.16
2024-02-05T05:56:17.386Z,86.10
2024-02-05T05:58:46.477Z,86.11
2024-02-05T06:01:15.168Z,85.97
2024-02-05T06:03:45.010Z,86.04
2024-02-05T06:06:14.013Z,86.12
2024-02-05T06:08:42.653Z,86.24
2024-02-05T06:11:11.921Z,86.16
2024-02-05T06:13:40.630Z,86.18
2024-02-05T06:16:12.735Z,86.20
2024-02-05T06:18:41.371Z,86.35
2024-02-05T06:21:10.472Z,86.41
2024-02-05T06:23:39.160Z,86.32
2024-02-05T06:26:10.474Z,86.29
2024-02-05T06:28:40.587Z,86.37
2024-02-05T06:31:14.531Z,86.38
2024-02-05T06:33:44.420Z,86.40
2024-02-05T06:36:13.123Z,86.55
2024-02-05T06:38:42.267Z,86.45
2024-02-05T06:41:10.809Z,86.36
2024-02-05T06:43:41.753Z,86.49
2024-02-05T06:46:11.485Z,86.48
2024-02-05T06:48:41.814Z,86.37
2024-02-05T06:51:11.819Z,86.48
2024-02-05T06:53:41.879Z,86.59
2024-02-05T06:56:11.595Z,86.45
2024-02-05T06:58:40.128Z,86.52
2024-02-05T07:01:09.121Z,86.55
2024-02-05T07:03:40.148Z,86.46
2024-02-05T07:06:09.997Z,86.51
2024-02-05T07:08:43.168Z,86.56
2024-02-05T07:11:11.772Z,86.61
2024-02-05T07:13:40.593Z,86.59
2024-02-05T07:16:16.210Z,86.58
2024-02-05T07:18:47.891Z,86.67
2024-02-05T07:21:20.541Z,86.52
2024-02-05T07:23:49.146Z,86.50
2024-02-05T07:26:17.765Z,86.52
2024-02-05T07:28:46.429Z,86.60
2024-02-05T07:31:15.286Z,86.57
2024-02-05T07:33:44.004Z,86.57
2024-02-05T07:36:12.637Z,86.57
2024-02-05T07:38:41.158Z,86.56
2024-02-05T07:41:11.581Z,86.70
2024-02-05T07:43:40.594Z,86.70
2024-02-05T07:46:09.830Z,86.70
2024-02-05T07:48:38.597Z,86.65
2024-02-05T07:51:07.229Z,86.65
2024-02-05T07:53:35.938Z,86.78
2024-02-05T07:56:10.478Z,86.75
2024-02-05T07:58:39.271Z,86.81
2024-02-05T08:01:08.123Z,86.82
2024-02-05T08:03:37.945Z,86.73
2024-02-05T08:06:09.746Z,86.79
2024-02-05T08:08:38.481Z,86.78
2024-02-05T08:11:08.515Z,86.82
2024-02-05T08:13:37.297Z,86.81
2024-02-05T08:16:08.114Z,86.81
2024-02-05T08:18:39.915Z,86.93
2024-02-05T08:21:08.774Z,86.91
2024-02-05T08:23:38.553Z,86.94
2024-02-05T08:26:08.994Z,86.88
2024-02-05T08:28:47.840Z,86.75
2024-02-05T08:31:17.614Z,86.73
2024-02-05T08:33:46.459Z,86.83
2024-02-05T08:36:18.008Z,86.89
2024-02-05T08:38:46.681Z,86.84
2024-02-05T08:41:18.458Z,86.99
2024-02-05T08:43:47.030Z,87.07
2024-02-05T08:46:15.766Z,86.92
2024-02-05T08:48:47.186Z,86.95
2024-02-05T08:51:16.257Z,86.96
2024-02-05T08:53:47.639Z,87.00
2024-02-05T08:56:16.266Z,86.99
2024-02-05T08:58:48.215Z,87.04
2024-02-05T09:01:17.211Z,87.07
2024-02-05T09:03:47.885Z,87.21
2024-02-05T09:06:17.164Z,87.19
2024-02-05T09:08:45.942Z,87.16
2024-02-05T09:11:15.426Z,87.15
2024-02-05T09:13:50.575Z,87.11
2024-02-05T09:16:19.437Z,87.15
2024-02-05T09:18:48.337Z,87.09
2024-02-05T09:21:17.412Z,87.20
2024-02-05T09:23:46.056Z,87.25
2024-02-05T09:26:17.769Z,87.09
2024-02-05T09:28:46.792Z,87.04
2024-02-05T09:31:15.641Z,87.23
2024-02-05T09:33:44.321Z,87.18
2024-02-05T09:36:12.989Z,87.01
2024-02-05T09:38:41.528Z,87.07
2024-02-05T09:41:13.340Z,86.99
2024-02-05T09:43:43.021Z,87.02
2024-02-05T09:46:19.209Z,87.05
2024-02-05T09:48:49.815Z,87.00
2024-02-05T09:51:21.626Z,86.95
2024-02-05T09:53:50.264Z,86.87
2024-02-05T09:56:19.666Z,86.89
2024-02-05T09:58:48.196Z,86.76
2024-02-05T10:01:19.047Z,86.77
2024-02-05T10:03:50.632Z,86.69
2024-02-05T10:06:21.550Z,86.69
2024-02-05T10:08:58.579Z,86.63
2024-02-05T10:11:29.286Z,86.70
2024-02-05T10:13:58.152Z,86.64
2024-02-05T10:16:26.948Z,86.45
2024-02-05T10:18:55.873Z,86.64
2024-02-05T10:21:27.625Z,86.73
2024-02-05T10:23:57.862Z,86.50
2024-02-05T10:26:33.775Z,86.49
2024-02-05T10:29:14.501Z,86.35
2024-02-05T10:31:56.079Z,86.39
2024-02-05T10:34:25.214Z,86.33
2024-02-05T10:36:54.459Z,86.29
2024-02-05T10:39:25.182Z,86.16
2024-02-05T10:41:57.448Z,86.13
2024-02-05T10:44:37.408Z,86.02
2024-02-05T10:47:10.952Z,85.89
2024-02-05T10:49:42.530Z,85.96
2024-02-05T10:52:16.707Z,86.02
2024-02-05T10:54:48.014Z,85.92
2024-02-05T10:57:20.337Z,85.74
2024-02-05T10:59:49.055Z,85.58
2024-02-05T11:02:26.354Z,85.61
2024-02-05T11:04:57.888Z,85.66
2024-02-05T11:07:30.376Z,85.45
2024-02-05T11:10:03.344Z,85.53
2024-02-05T11:12:33.165Z,85.50
2024-02-05T11:15:05.913Z,85.43
2024-02-05T11:17:37.391Z,85.38
2024-02-05T11:20:10.474Z,85.35
2024-02-05T11:22:43.292Z,85.29
2024-02-05T11:25:12.871Z,85.23
2024-02-05T11:27:43.090Z,85.12
2024-02-05T11:30:17.000Z,85.04
2024-02-05T11:32:46.819Z,85.03
2024-02-05T11:35:16.733Z,84.91
2024-02-05T11:37:48.482Z,84.79
2024-02-05T11:40:24.570Z,84.81
2024-02-05T11:43:07.760Z,84.81
2024-02-05T11:45:37.543Z,84.45
2024-02-05T11:48:10.008Z,84.48
2024-02-05T11:50:38.938Z,84.34
2024-02-05T11:53:07.616Z,84.33
2024-02-05T11:55:37.821Z,84.41
2024-02-05T11:58:08.846Z,84.21
2024-02-05T12:00:37.500Z,84.33
2024-02-05T12:03:07.632Z,84.11
2024-02-05T12:05:36.984Z,83.92
2024-02-05T12:08:10.329Z,83.72
2024-02-05T12:10:40.105Z,83.52
2024-02-05T12:13:08.697Z,83.59
2024-02-05T12:15:39.116Z,83.44
2024-02-05T12:18:08.431Z,83.42
2024-02-05T12:20:37.348Z,83.35
2024-02-05T12:23:06.563Z,82.92
2024-02-05T12:25:42.071Z,82.60
2024-02-05T12:28:16.276Z,82.52
2024-02-05T12:30:45.414Z,82.42
2024-02-05T12:33:17.839Z,82.53
2024-02-05T12:35:59.164Z,82.55
2024-02-05T12:38:31.366Z,82.12
2024-02-05T12:41:01.214Z,81.75
2024-02-05T12:43:31.425Z,81.66
2024-02-05T12:46:04.534Z,81.55
2024-02-05T12:48:35.427Z,81.66
2024-02-05T12:51:04.235Z,81.44
2024-02-05T12:53:36.419Z,81.26
2024-02-05T12:56:05.626Z,81.17
2024-02-05T12:58:34.235Z,81.16
2024-02-05T13:01:02.981Z,80.80
2024-02-05T13:03:37.001Z,80.90
2024-02-05T13:06:07.039Z,80.82
2024-02-05T13:08:44.275Z,80.63
2024-02-05T13:11:13.013Z,80.53
2024-02-05T13:13:41.770Z,80.41
2024-02-05T13:16:11.089Z,80.38
2024-02-05T13:18:39.855Z,80.17
2024-02-05T13:21:08.714Z,80.16
2024-02-05T13:23:37.515Z,79.88
2024-02-05T13:26:07.204Z,79.66
2024-02-05T13:28:36.098Z,79.40
2024-02-05T13:31:06.428Z,79.29
2024-02-05T13:33:35.462Z,79.21
2024-02-05T13:36:05.758Z,79.41
2024-02-05T13:38:35.304Z,79.07
2024-02-05T13:41:05.152Z,78.74
2024-02-05T13:43:34.627Z,78.79
2024-02-05T13:46:05.530Z,78.68
2024-02-05T13:48:37.136Z,78.83
2024-02-05T13:51:05.980Z,78.65
2024-02-05T13:53:34.705Z,78.58
2024-02-05T13:56:05.753Z,78.53
2024-02-05T13:58:34.334Z,78.33
2024-02-05T14:01:02.998Z,78.31
2024-02-05T14:03:31.977Z,78.04
2024-02-05T14:06:01.408Z,77.93
2024-02-05T14:08:31.753Z,77.35
2024-02-05T14:11:03.292Z,77.40
2024-02-05T14:13:33.069Z,77.62
2024-02-05T14:16:02.303Z,77.51
2024-02-05T14:18:31.809Z,77.44
2024-02-05T14:21:00.830Z,77.14
2024-02-05T14:23:29.538Z,77.25
2024-02-05T14:25:58.230Z,77.19
2024-02-05T14:28:27.506Z,76.97
2024-02-05T14:30:56.582Z,76.75
2024-02-05T14:33:26.702Z,76.85
2024-02-05T14:35:55.646Z,76.88
2024-02-05T14:38:27.830Z,76.69
2024-02-05T14:40:56.516Z,76.51
2024-02-05T14:43:27.029Z,76.59
2024-02-05T14:46:01.194Z,76.45
2024-02-05T14:48:29.993Z,76.50
2024-02-05T14:50:58.882Z,76.28
2024-02-05T14:53:37.743Z,76.10
2024-02-05T14:56:09.239Z,75.97
2024-02-05T14:58:39.654Z,76.15
2024-02-05T15:01:09.505Z,76.18
2024-02-05T15:03:38.695Z,75.83
2024-02-05T15:06:07.770Z,75.67
2024-02-05T15:08:38.964Z,75.49
2024-02-05T15:11:07.608Z,75.57
2024-02-05T15:13:36.274Z,75.40
2024-02-05T15:16:05.413Z,75.46
2024-02-05T15:18:34.020Z,75.12
2024-02-05T15:21:02.586Z,74.91
2024-02-05T15:23:31.089Z,74.94
2024-02-05T15:25:59.657Z,74.98
2024-02-05T15:28:30.382Z,74.77
2024-02-05T15:31:01.109Z,74.78
2024-02-05T15:33:30.582Z,74.46
2024-02-05T15:35:59.312Z,74.57
2024-02-05T15:38:28.268Z,74.61
2024-02-05T15:40:56.866Z,74.58
2024-02-05T15:43:26.264Z,74.61
2024-02-05T15:45:55.681Z,74.51
2024-02-05T15:48:25.863Z,74.65
2024-02-05T15:50:55.190Z,74.57
2024-02-05T15:53:23.800Z,74.46
2024-02-05T15:55:52.355Z,74.43
2024-02-05T15:58:21.292Z,74.43
2024-02-05T16:00:49.916Z,74.41
2024-02-05T16:03:18.622Z,74.45
2024-02-05T16:05:47.544Z,74.28
2024-02-05T16:08:16.206Z,74.26
2024-02-05T16:10:44.887Z,74.36
2024-02-05T16:13:14.078Z,74.20
2024-02-05T16:15:42.737Z,74.27
2024-02-05T16:18:11.779Z,74.17
2024-02-05T16:20:42.446Z,74.11
2024-02-05T16:23:13.408Z,74.21
2024-02-05T16:25:42.604Z,74.03
2024-02-05T16:28:11.243Z,74.07
2024-02-05T16:30:39.862Z,74.02
2024-02-05T16:33:11.689Z,74.06
2024-02-05T16:35:42.249Z,74.11
2024-02-05T16:38:13.300Z,74.07
2024-02-05T16:40:42.031Z,74.00
2024-02-05T16:43:10.767Z,73.95
2024-02-05T16:45:39.352Z,73.85
2024-02-05T16:48:08.941Z,73.89
2024-02-05T16:50:37.723Z,73.88
2024-02-05T16:53:06.279Z,73.88
2024-02-05T16:55:35.409Z,73.78
2024-02-05T16:58:04.732Z,73.72
2024-02-05T17:00:33.655Z,73.86
2024-02-05T17:03:02.231Z,73.85
2024-02-05T17:05:31.225Z,73.94
2024-02-05T17:08:00.252Z,73.86
2024-02-05T17:10:28.914Z,73.88
2024-02-05T17:12:57.477Z,73.93
2024-02-05T17:15:27.421Z,73.92
2024-02-05T17:17:59.308Z,73.83
2024-02-05T17:20:28.067Z,73.86
2024-02-05T17:22:56.898Z,73.88
2024-02-05T17:25:25.497Z,73.86
2024-02-05T17:27:54.107Z,73.81
2024-02-05T17:30:24.631Z,73.81
2024-02-05T17:32:53.245Z,73.85
2024-02-05T17:35:22.502Z,73.78
2024-02-05T17:37:51.281Z,73.75
2024-02-05T17:40:19.891Z,73.79
2024-02-05T17:42:48.511Z,73.69
2024-02-05T17:45:17.598Z,73.67
2024-02-05T17:47:46.157Z,73.67
2024-02-05T17:50:15.397Z,73.71
2024-02-05T17:52:48.221Z,73.60
2024-02-05T17:55:20.456Z,73.64
2024-02-05T17:57:50.074Z,73.58
2024-02-05T18:00:18.982Z,73.65
2024-02-05T18:02:59.803Z,73.56
2024-02-05T18:05:39.134Z,73.61
2024-02-05T18:08:20.845Z,73.52
2024-02-05T18:11:12.344Z,73.54
2024-02-05T18:13:52.853Z,73.48
2024-02-05T18:16:27.568Z,73.49
2024-02-05T18:19:03.115Z,73.42
2024-02-05T18:21:36.999Z,73.37
2024-02-05T18:24:07.211Z,73.36
2024-02-05T18:26:35.900Z,73.31
2024-02-05T18:29:04.822Z,73.34
2024-02-05T18:31:35.578Z,73.20
2024-02-05T18:34:14.909Z,73.20
2024-02-05T18:36:52.781Z,73.13
2024-02-05T18:39:25.795Z,73.12
2024-02-05T18:41:59.983Z,73.19
2024-02-05T18:44:32.988Z,73.14
2024-02-05T18:47:10.570Z,73.09
2024-02-05T18:49:59.378Z,73.12
2024-02-05T18:52:34.007Z,73.03
2024-02-05T18:55:08.078Z,72.98
2024-02-05T18:57:49.523Z,72.84
2024-02-05T19:00:34.381Z,72.80
2024-02-05T19:03:12.477Z,72.69
2024-02-05T19:05:57.079Z,72.87
2024-02-05T19:08:36.483Z,72.81
2024-02-05T19:11:15.659Z,72.82
2024-02-05T19:13:53.782Z,72.76
2024-02-05T19:16:31.371Z,72.82
2024-02-05T19:19:05.976Z,72.68
2024-02-05T19:21:44.718Z,72.62
2024-02-05T19:24:27.298Z,72.65
2024-02-05T19:27:08.310Z,72.68
2024-02-05T19:29:46.024Z,72.47
2024-02-05T19:32:19.418Z,72.51
2024-02-05T19:34:53.752Z,72.37
2024-02-05T19:37:28.771Z,72.35
2024-02-05T19:40:00.180Z,72.29
2024-02-05T19:42:28.932Z,72.04
2024-02-05T19:44:57.576Z,72.12
2024-02-05T19:47:26.325Z,71.87
2024-02-05T19:49:55.095Z,71.86
2024-02-05T19:52:23.917Z,71.82
2024-02-05T19:54:53.229Z,71.93
2024-02-05T19:57:21.887Z,71.76
2024-02-05T19:59:50.575Z,71.77
2024-02-05T20:02:20.071Z,71.85
2024-02-05T20:04:49.340Z,71.73
2024-02-05T20:07:18.074Z,71.67
2024-02-05T20:09:46.609Z,71.61
2024-02-05T20:12:15.864Z,71.59
2024-02-05T20:14:44.750Z,71.57
2024-02-05T20:17:13.316Z,71.62
2024-02-05T20:19:42.398Z,71.54
2024-02-05T20:22:13.197Z,71.40
2024-02-05T20:24:41.823Z,71.30
2024-02-05T20:27:10.391Z,71.26
2024-02-05T20:29:38.987Z,71.14
2024-02-05T20:32:09.814Z,70.88
2024-02-05T20:34:38.453Z,71.05
2024-02-05T20:37:07.108Z,70.90
2024-02-05T20:39:35.652Z,70.97
2024-02-05T20:42:04.446Z,70.98
2024-02-05T20:44:34.162Z,70.95
2024-02-05T20:47:02.708Z,70.70
2024-02-05T20:49:31.535Z,70.58
2024-02-05T20:52:00.262Z,70.62
2024-02-05T20:54:33.436Z,70.64
2024-02-05T20:57:02.608Z,70.61
2024-02-05T20:59:31.171Z,70.47
2024-02-05T21:01:59.977Z,70.35
2024-02-05T21:04:28.833Z,70.09
2024-02-05T21:06:57.616Z,70.12
2024-02-05T21:09:28.941Z,70.29
2024-02-05T21:11:57.676Z,70.28
2024-02-05T21:14:26.307Z,70.16
2024-02-05T21:16:56.044Z,70.24
2024-02-05T21:19:24.615Z,70.14
2024-02-05T21:21:53.951Z,70.03
2024-02-05T21:24:25.208Z,69.97
2024-02-05T21:26:53.723Z,70.04
2024-02-05T21:29:22.385Z,70.01
2024-02-05T21:31:50.870Z,69.98
2024-02-05T21:34:19.638Z,70.02
2024-02-05T21:36:48.836Z,69.83
2024-02-05T21:39:17.504Z,69.68
2024-02-05T21:41:46.756Z,69.79
2024-02-05T21:44:15.360Z,69.96
2024-02-05T21:46:48.263Z,69.83
2024-02-05T21:49:16.936Z,69.76
2024-02-05T21:51:45.568Z,69.67
2024-02-05T21:54:14.058Z,69.50
2024-02-05T21:56:42.723Z,69.46
2024-02-05T21:59:14.474Z,69.48
2024-02-05T22:01:43.313Z,69.46
2024-02-05T22:04:12.148Z,69.50
2024-02-05T22:06:41.427Z,69.43
2024-02-05T22:09:11.012Z,69.35
2024-02-05T22:11:39.582Z,69.29
2024-02-05T22:14:08.083Z,69.26
2024-02-05T22:16:36.675Z,69.29
2024-02-05T22:19:05.516Z,69.31
2024-02-05T22:21:36.772Z,69.25
2024-02-05T22:24:07.082Z,69.05
2024-02-05T22:26:35.889Z,69.15
2024-02-05T22:29:08.243Z,69.26
2024-02-05T22:31:40.265Z,68.98
2024-02-05T22:34:13.355Z,68.94
2024-02-05T22:36:48.509Z,69.05
2024-02-05T22:39:17.063Z,68.97
2024-02-05T22:41:45.597Z,69.01
2024-02-05T22:44:14.912Z,69.00
2024-02-05T22:46:44.434Z,68.89
2024-02-05T22:49:13.328Z,68.84
2024-02-05T22:51:42.159Z,68.90
2024-02-05T22:54:10.720Z,68.84
2024-02-05T22:56:39.280Z,68.94
2024-02-05T22:59:07.812Z,68.88
2024-02-05T23:01:36.580Z,68.91
2024-02-05T23:04:05.377Z,68.93
2024-02-05T23:06:34.199Z,68.91
2024-02-05T23:09:02.805Z,68.90
2024-02-05T23:11:31.310Z,68.88
2024-02-05T23:14:07.074Z,68.88
2024-02-05T23:16:35.929Z,68.80
2024-02-05T23:19:05.579Z,68.90
2024-02-05T23:21:34.222Z,68.85
2024-02-05T23:24:03.927Z,68.80
2024-02-05T23:26:32.502Z,68.92
2024-02-05T23:29:02.928Z,68.85
2024-02-05T23:31:32.175Z,68.93
2024-02-05T23:34:00.982Z,68.77
2024-02-05T23:36:30.431Z,68.63
2024-02-05T23:38:59.166Z,68.68
2024-02-05T23:41:27.787Z,68.68
2024-02-05T23:43:56.342Z,68.70
2024-02-05T23:46:25.022Z,68.75
2024-02-05T23:48:53.701Z,68.75
2024-02-05T23:51:22.241Z,68.66
2024-02-05T23:53:50.749Z,68.66
2024-02-05T23:56:19.280Z,68.64
2024-02-05T23:58:47.913Z,68.78
